createdAt,value
2019-03-10T00:01:07.480Z,1.40
2019-03-10T00:03:41.117Z,1.30
2019-03-10T00:06:14.846Z,1.20
2019-03-10T00:08:48.532Z,1.20
2019-03-10T00:11:22.244Z,1.20
2019-03-10T00:13:55.914Z,1.10
2019-03-10T00:16:29.652Z,1.10
2019-03-10T00:19:03.276Z,1.10
2019-03-10T00:21:36.958Z,1.10
2019-03-10T00:24:10.665Z,1.10
2019-03-10T00:26:44.588Z,1.10
2019-03-10T00:29:18.288Z,1.10
2019-03-10T00:31:51.991Z,1.20
2019-03-10T00:34:25.738Z,1.20
2019-03-10T00:37:02.480Z,1.20
2019-03-10T00:43:39.601Z,1.20
2019-03-10T00:46:37.626Z,1.30
2019-03-10T00:49:45.405Z,1.30
2019-03-10T00:52:25.005Z,1.30
2019-03-10T00:58:44.562Z,1.40
2019-03-10T01:01:18.395Z,1.50
2019-03-10T01:03:52.043Z,1.50
2019-03-10T01:06:25.966Z,1.60
2019-03-10T01:08:59.798Z,1.60
2019-03-10T01:15:12.050Z,1.60
2019-03-10T01:17:47.399Z,1.70
2019-03-10T01:20:21.203Z,1.70
2019-03-10T01:22:56.018Z,1.80
2019-03-10T01:25:29.700Z,1.80
2019-03-10T01:28:04.614Z,1.80
2019-03-10T01:30:41.335Z,1.80
2019-03-10T01:33:29.884Z,1.80
2019-03-10T01:36:04.002Z,1.80
2019-03-10T01:38:37.590Z,1.90
2019-03-10T01:41:12.418Z,1.90
2019-03-10T01:43:46.123Z,1.90
2019-03-10T01:46:19.852Z,1.90
2019-03-10T01:48:53.658Z,2.00
2019-03-10T01:51:27.408Z,2.00
2019-03-10T01:54:01.029Z,2.00
2019-03-10T01:56:34.668Z,2.00
2019-03-10T01:59:09.857Z,2.00
2019-03-10T02:01:43.483Z,2.00
2019-03-10T02:04:17.262Z,2.00
2019-03-10T02:06:50.933Z,2.00
2019-03-10T02:09:24.680Z,2.10
2019-03-10T02:11:58.323Z,2.10
2019-03-10T02:14:31.908Z,2.10
2019-03-10T02:17:05.736Z,2.20
2019-03-10T02:19:39.270Z,2.20
2019-03-10T02:22:12.923Z,2.20
2019-03-10T02:24:46.675Z,2.20
2019-03-10T02:27:20.269Z,2.20
2019-03-10T02:29:57.103Z,2.20
2019-03-10T02:32:30.744Z,2.20
2019-03-10T02:35:05.922Z,2.30
2019-03-10T02:37:42.131Z,2.30
2019-03-10T02:43:52.899Z,2.40
2019-03-10T02:46:26.500Z,2.30
2019-03-10T02:49:00.162Z,2.30
2019-03-10T02:51:33.802Z,2.30
2019-03-10T02:54:07.551Z,2.30
2019-03-10T03:00:18.560Z,2.30
2019-03-10T03:02:52.212Z,2.30
2019-03-10T03:05:26.057Z,2.30
2019-03-10T03:07:59.602Z,2.30
2019-03-10T03:10:33.400Z,2.20
2019-03-10T03:13:09.925Z,2.20
2019-03-10T03:15:43.596Z,2.10
2019-03-10T03:18:17.198Z,2.10
2019-03-10T03:20:50.847Z,2.10
2019-03-10T03:23:24.506Z,2.10
2019-03-10T03:25:58.229Z,2.00
2019-03-10T03:28:31.830Z,2.10
2019-03-10T03:31:05.772Z,2.10
2019-03-10T03:33:39.373Z,2.10
2019-03-10T03:36:21.884Z,2.10
2019-03-10T03:39:07.454Z,2.10
2019-03-10T03:41:41.069Z,2.10
2019-03-10T03:44:15.155Z,2.10
2019-03-10T03:46:48.903Z,2.20
2019-03-10T03:49:22.682Z,2.20
2019-03-10T03:51:56.317Z,2.20
2019-03-10T03:54:29.903Z,2.20
2019-03-10T03:57:03.662Z,2.20
2019-03-10T03:59:37.376Z,2.30
2019-03-10T04:02:12.694Z,2.30
2019-03-10T04:04:46.499Z,2.30
2019-03-10T04:07:20.224Z,2.40
2019-03-10T04:09:53.969Z,2.40
2019-03-10T04:12:27.748Z,2.40
2019-03-10T04:15:01.615Z,2.50
2019-03-10T04:17:36.887Z,2.50
2019-03-10T04:20:10.905Z,2.50
2019-03-10T04:22:44.495Z,2.50
2019-03-10T04:25:18.082Z,2.60
2019-03-10T04:27:51.838Z,2.50
2019-03-10T04:30:25.590Z,2.60
2019-03-10T04:32:59.237Z,2.60
2019-03-10T04:35:32.919Z,2.60
2019-03-10T04:38:06.564Z,2.60
2019-03-10T04:40:40.145Z,2.50
2019-03-10T04:43:13.904Z,2.50
2019-03-10T04:45:47.663Z,2.50
2019-03-10T04:48:21.303Z,2.40
2019-03-10T04:50:55.046Z,2.40
2019-03-10T04:53:28.638Z,2.40
2019-03-10T04:59:49.003Z,2.30
2019-03-10T05:02:22.711Z,2.20
2019-03-10T05:04:57.511Z,2.20
2019-03-10T05:07:31.075Z,2.20
2019-03-10T05:10:05.989Z,2.20
2019-03-10T05:16:20.768Z,2.30
2019-03-10T05:18:54.364Z,2.20
2019-03-10T05:21:27.985Z,2.20
2019-03-10T05:24:04.265Z,2.20
2019-03-10T05:26:37.907Z,2.20
2019-03-10T05:29:11.555Z,2.20
2019-03-10T05:31:45.264Z,2.20
2019-03-10T05:34:18.971Z,2.20
2019-03-10T05:36:52.613Z,2.20
2019-03-10T05:39:26.284Z,2.30
2019-03-10T05:42:00.053Z,2.30
2019-03-10T05:44:33.687Z,2.20
2019-03-10T05:47:07.803Z,2.30
2019-03-10T05:49:41.901Z,2.30
2019-03-10T05:52:15.553Z,2.40
2019-03-10T05:54:49.219Z,2.40
2019-03-10T05:57:23.027Z,2.30
2019-03-10T05:59:58.263Z,2.40
2019-03-10T06:02:31.870Z,2.30
2019-03-10T06:05:06.518Z,2.40
2019-03-10T06:07:41.634Z,2.50
2019-03-10T06:10:15.411Z,2.40
2019-03-10T06:12:49.120Z,2.40
2019-03-10T06:15:22.896Z,2.40
2019-03-10T06:17:56.584Z,2.50
2019-03-10T06:20:30.325Z,2.40
2019-03-10T06:23:03.930Z,2.40
2019-03-10T06:25:37.635Z,2.30
2019-03-10T06:28:11.617Z,2.30
2019-03-10T06:30:45.307Z,2.30
2019-03-10T06:33:19.996Z,2.30
2019-03-10T06:35:53.682Z,2.30
2019-03-10T06:38:27.246Z,2.30
2019-03-10T06:41:00.978Z,2.30
2019-03-10T06:43:34.577Z,2.30
2019-03-10T06:46:08.188Z,2.30
2019-03-10T06:48:42.179Z,2.30
2019-03-10T06:51:15.927Z,2.30
2019-03-10T06:53:49.653Z,2.30
2019-03-10T06:56:23.329Z,2.30
2019-03-10T06:58:56.961Z,2.30
2019-03-10T07:01:31.176Z,2.30
2019-03-10T07:04:04.938Z,2.30
2019-03-10T07:06:38.607Z,2.30
2019-03-10T07:09:12.182Z,2.40
2019-03-10T07:11:45.770Z,2.40
2019-03-10T07:14:22.084Z,2.50
2019-03-10T07:16:55.683Z,2.50
2019-03-10T07:19:29.297Z,2.50
2019-03-10T07:22:05.005Z,2.60
2019-03-10T07:24:38.723Z,2.60
2019-03-10T07:30:51.498Z,2.80
2019-03-10T07:33:29.433Z,3.10
2019-03-10T07:36:07.559Z,3.30
2019-03-10T07:38:58.042Z,3.50
2019-03-10T07:41:39.264Z,3.80
2019-03-10T07:48:06.784Z,4.20
2019-03-10T07:50:47.778Z,4.40
2019-03-10T07:53:40.028Z,4.50
2019-03-10T07:56:15.255Z,4.60
2019-03-10T07:58:56.463Z,4.70
2019-03-10T08:01:34.709Z,5.00
2019-03-10T08:04:12.763Z,5.10
2019-03-10T08:07:04.356Z,5.00
2019-03-10T08:09:42.096Z,4.90
2019-03-10T08:15:44.744Z,4.90
2019-03-10T08:18:35.102Z,4.90
2019-03-10T08:21:13.216Z,4.90
2019-03-10T08:23:51.117Z,5.00
2019-03-10T08:26:42.670Z,5.20
2019-03-10T08:33:06.534Z,5.40
2019-03-10T08:35:41.845Z,5.40
2019-03-10T08:38:33.165Z,5.60
2019-03-10T08:41:17.516Z,5.60
2019-03-10T08:44:09.278Z,5.60
2019-03-10T08:46:50.426Z,5.60
2019-03-10T08:49:25.740Z,5.70
2019-03-10T08:52:03.804Z,5.70
2019-03-10T08:54:39.120Z,5.70
2019-03-10T08:57:17.566Z,5.70
2019-03-10T08:59:58.403Z,5.70
2019-03-10T09:02:33.738Z,5.60
2019-03-10T09:05:18.277Z,5.60
2019-03-10T09:08:02.561Z,5.60
2019-03-10T09:10:44.370Z,5.50
2019-03-10T09:17:11.552Z,5.30
2019-03-10T09:19:49.458Z,5.10
2019-03-10T09:22:27.288Z,5.00
2019-03-10T09:25:02.661Z,5.00
2019-03-10T09:27:38.009Z,5.00
2019-03-10T09:30:22.743Z,5.10
2019-03-10T09:33:09.930Z,5.20
2019-03-10T09:35:54.078Z,5.20
2019-03-10T09:38:35.353Z,5.20
2019-03-10T09:41:27.180Z,5.20
2019-03-10T09:48:03.814Z,5.20
2019-03-10T09:50:55.226Z,5.30
2019-03-10T09:53:36.337Z,5.30
2019-03-10T09:56:23.582Z,5.30
2019-03-10T09:59:07.604Z,5.40
2019-03-10T10:01:45.417Z,5.40
2019-03-10T10:04:37.414Z,5.50
2019-03-10T10:07:12.726Z,5.50
2019-03-10T10:09:50.646Z,5.50
2019-03-10T10:12:28.800Z,5.50
2019-03-10T10:15:20.258Z,5.50
2019-03-10T10:17:55.539Z,5.70
2019-03-10T10:20:33.993Z,5.70
2019-03-10T10:23:09.296Z,5.70
2019-03-10T10:25:47.479Z,5.80
2019-03-10T10:29:14.358Z,5.70
2019-03-10T10:32:06.081Z,5.70
2019-03-10T10:34:44.222Z,5.80
2019-03-10T10:37:19.521Z,5.90
2019-03-10T10:39:54.898Z,6.10
2019-03-10T10:42:46.565Z,6.10
2019-03-10T10:45:22.135Z,6.10
2019-03-10T10:48:13.840Z,6.10
2019-03-10T10:50:49.357Z,6.00
2019-03-10T10:53:24.551Z,6.00
2019-03-10T10:56:03.145Z,6.10
2019-03-10T10:59:34.864Z,6.10
2019-03-10T11:02:13.496Z,6.20
2019-03-10T11:04:50.878Z,6.30
2019-03-10T11:07:27.455Z,6.40
2019-03-10T11:10:21.501Z,6.50
2019-03-10T11:12:57.867Z,6.60
2019-03-10T11:15:35.782Z,6.80
2019-03-10T11:18:25.861Z,6.90
2019-03-10T11:21:01.151Z,7.00
2019-03-10T11:23:53.853Z,7.10
2019-03-10T11:26:29.185Z,7.10
2019-03-10T11:32:59.669Z,7.00
2019-03-10T11:35:37.444Z,6.90
2019-03-10T11:38:29.193Z,6.90
2019-03-10T11:41:13.474Z,6.90
2019-03-10T11:43:48.793Z,6.90
2019-03-10T11:46:27.296Z,6.70
2019-03-10T11:49:06.579Z,6.80
2019-03-10T11:51:41.875Z,6.70
2019-03-10T11:54:33.749Z,6.90
2019-03-10T11:57:21.195Z,7.00
2019-03-10T12:00:08.099Z,7.00
2019-03-10T12:02:43.405Z,6.80
2019-03-10T12:05:24.904Z,6.70
2019-03-10T12:08:02.700Z,6.60
2019-03-10T12:10:36.309Z,6.70
2019-03-10T12:13:12.466Z,6.60
2019-03-10T12:15:46.213Z,6.70
2019-03-10T12:18:19.793Z,6.70
2019-03-10T12:20:53.548Z,6.70
2019-03-10T12:23:27.343Z,6.80
2019-03-10T12:26:00.949Z,6.70
2019-03-10T12:28:34.672Z,6.70
2019-03-10T12:31:09.269Z,6.70
2019-03-10T12:33:42.985Z,6.80
2019-03-10T12:36:16.635Z,6.90
2019-03-10T12:38:56.485Z,7.10
2019-03-10T12:41:26.147Z,7.20
2019-03-10T12:44:01.457Z,7.10
2019-03-10T12:46:35.229Z,7.20
2019-03-10T12:49:10.501Z,7.20
2019-03-10T12:51:44.086Z,7.40
2019-03-10T12:54:17.812Z,7.40
2019-03-10T12:56:56.830Z,7.30
2019-03-10T13:03:08.318Z,7.50
2019-03-10T13:05:42.015Z,7.50
2019-03-10T13:08:19.025Z,7.20
2019-03-10T13:10:52.613Z,7.00
2019-03-10T13:13:26.471Z,6.80
2019-03-10T13:19:46.432Z,6.90
2019-03-10T13:22:20.014Z,7.20
2019-03-10T13:24:53.720Z,7.20
2019-03-10T13:27:27.461Z,7.30
2019-03-10T13:30:01.912Z,7.60
2019-03-10T13:32:36.459Z,7.50
2019-03-10T13:35:10.428Z,7.40
2019-03-10T13:37:46.372Z,7.40
2019-03-10T13:40:20.102Z,7.40
2019-03-10T13:42:53.719Z,7.40
2019-03-10T13:45:29.554Z,7.30
2019-03-10T13:48:03.228Z,7.30
2019-03-10T13:50:37.243Z,7.10
2019-03-10T13:53:11.027Z,7.00
2019-03-10T13:55:44.693Z,6.90
2019-03-10T13:58:18.430Z,7.00
2019-03-10T14:00:52.156Z,7.10
2019-03-10T14:03:26.207Z,7.40
2019-03-10T14:05:59.808Z,7.50
2019-03-10T14:08:33.613Z,7.40
2019-03-10T14:11:07.434Z,7.30
2019-03-10T14:13:42.933Z,7.20
2019-03-10T14:16:21.093Z,7.10
2019-03-10T14:18:59.843Z,7.20
2019-03-10T14:21:34.343Z,7.30
2019-03-10T14:24:08.137Z,7.40
2019-03-10T14:26:41.957Z,7.50
2019-03-10T14:29:16.015Z,7.40
2019-03-10T14:31:51.187Z,7.30
2019-03-10T14:34:25.218Z,7.10
2019-03-10T14:36:58.938Z,7.00
2019-03-10T14:39:41.103Z,6.80
2019-03-10T14:42:14.831Z,6.70
2019-03-10T14:44:48.699Z,6.70
2019-03-10T14:47:22.345Z,6.60
2019-03-10T14:49:57.612Z,6.60
2019-03-10T14:52:31.485Z,6.40
2019-03-10T14:55:08.196Z,6.30
2019-03-10T14:57:48.341Z,6.20
2019-03-10T15:03:58.085Z,5.90
2019-03-10T15:06:34.733Z,5.80
2019-03-10T15:09:08.573Z,5.70
2019-03-10T15:11:42.327Z,5.60
2019-03-10T15:14:15.967Z,5.60
2019-03-10T15:20:27.192Z,5.70
2019-03-10T15:23:00.862Z,5.80
2019-03-10T15:25:34.684Z,5.90
2019-03-10T15:28:08.491Z,6.00
2019-03-10T15:30:43.873Z,5.90
2019-03-10T15:33:17.495Z,5.90
2019-03-10T15:35:51.435Z,5.80
2019-03-10T15:38:25.205Z,5.70
2019-03-10T15:40:58.893Z,5.70
2019-03-10T15:43:32.871Z,5.60
2019-03-10T15:46:08.298Z,5.50
2019-03-10T15:48:41.954Z,5.50
2019-03-10T15:51:15.649Z,5.40
2019-03-10T15:53:49.649Z,5.40
2019-03-10T15:56:23.275Z,5.30
2019-03-10T15:58:57.038Z,5.30
2019-03-10T16:01:31.872Z,5.20
2019-03-10T16:04:19.333Z,5.20
2019-03-10T16:06:53.434Z,5.20
2019-03-10T16:09:27.245Z,5.20
2019-03-10T16:12:00.847Z,5.20
2019-03-10T16:14:34.624Z,5.10
2019-03-10T16:17:08.356Z,5.00
2019-03-10T16:19:42.067Z,5.00
2019-03-10T16:22:17.447Z,4.90
2019-03-10T16:24:51.288Z,4.90
2019-03-10T16:27:27.572Z,4.80
2019-03-10T16:30:01.432Z,4.80
2019-03-10T16:32:35.256Z,4.70
2019-03-10T16:35:10.441Z,4.70
2019-03-10T16:37:44.220Z,4.60
2019-03-10T16:40:23.646Z,4.60
2019-03-10T16:42:57.303Z,4.50
2019-03-10T16:45:31.083Z,4.40
2019-03-10T16:48:04.995Z,4.40
2019-03-10T16:50:41.532Z,4.30
2019-03-10T16:53:15.217Z,4.30
2019-03-10T16:55:48.974Z,4.20
2019-03-10T16:58:22.684Z,4.10
2019-03-10T17:00:56.380Z,4.00
2019-03-10T17:03:30.092Z,4.00
2019-03-10T17:06:03.867Z,4.00
2019-03-10T17:08:37.523Z,4.00
2019-03-10T17:11:11.232Z,3.90
2019-03-10T17:13:44.823Z,3.90
2019-03-10T17:19:55.930Z,3.80
2019-03-10T17:22:29.714Z,3.80
2019-03-10T17:25:04.092Z,3.70
2019-03-10T17:27:37.941Z,3.70
2019-03-10T17:30:26.722Z,3.70
2019-03-10T17:36:37.952Z,3.70
2019-03-10T17:39:11.699Z,3.70
2019-03-10T17:41:45.435Z,3.60
2019-03-10T17:44:19.229Z,3.60
2019-03-10T17:46:53.084Z,3.60
2019-03-10T17:49:26.944Z,3.50
2019-03-10T17:52:02.052Z,3.50
2019-03-10T17:54:36.108Z,3.40
2019-03-10T17:57:09.758Z,3.40
2019-03-10T17:59:43.495Z,3.30
2019-03-10T18:02:17.288Z,3.30
2019-03-10T18:04:51.046Z,3.20
2019-03-10T18:07:25.846Z,3.20
2019-03-10T18:09:59.965Z,3.10
2019-03-10T18:12:33.691Z,3.10
2019-03-10T18:15:10.314Z,3.10
2019-03-10T18:17:46.276Z,3.10
2019-03-10T18:20:20.896Z,3.00
2019-03-10T18:22:54.815Z,3.00
2019-03-10T18:25:29.615Z,3.00
2019-03-10T18:28:05.875Z,3.00
2019-03-10T18:30:40.426Z,2.90
2019-03-10T18:33:14.000Z,2.90
2019-03-10T18:35:52.067Z,2.90
2019-03-10T18:38:25.732Z,2.90
2019-03-10T18:40:59.739Z,2.80
2019-03-10T18:43:33.474Z,2.70
2019-03-10T18:46:15.107Z,2.70
2019-03-10T18:48:48.737Z,2.70
2019-03-10T18:51:25.314Z,2.70
2019-03-10T18:53:59.117Z,2.60
2019-03-10T18:56:32.817Z,2.60
2019-03-10T18:59:06.427Z,2.60
2019-03-10T19:01:40.156Z,2.60
2019-03-10T19:04:13.948Z,2.60
2019-03-10T19:06:47.650Z,2.60
2019-03-10T19:09:22.565Z,2.60
2019-03-10T19:11:56.175Z,2.50
2019-03-10T19:14:29.905Z,2.50
2019-03-10T19:17:03.503Z,2.50
2019-03-10T19:19:37.239Z,2.50
2019-03-10T19:22:10.986Z,2.60
2019-03-10T19:24:48.475Z,2.60
2019-03-10T19:27:30.139Z,2.60
2019-03-10T19:29:57.937Z,2.60
2019-03-10T19:36:18.367Z,2.50
2019-03-10T19:38:52.134Z,2.50
2019-03-10T19:41:26.078Z,2.50
2019-03-10T19:44:02.593Z,2.60
2019-03-10T19:46:36.276Z,2.60
2019-03-10T19:52:57.096Z,2.70
2019-03-10T19:55:30.894Z,2.70
2019-03-10T19:58:04.805Z,2.70
2019-03-10T20:00:38.645Z,2.70
2019-03-10T20:03:12.256Z,2.70
2019-03-10T20:05:46.013Z,2.80
2019-03-10T20:08:19.810Z,2.80
2019-03-10T20:10:53.631Z,2.80
2019-03-10T20:13:27.469Z,2.80
2019-03-10T20:16:01.272Z,2.90
2019-03-10T20:18:36.148Z,2.90
2019-03-10T20:21:09.970Z,2.90
2019-03-10T20:23:43.859Z,2.90
2019-03-10T20:26:19.905Z,2.90
2019-03-10T20:28:53.637Z,3.00
2019-03-10T20:31:27.965Z,3.00
2019-03-10T20:34:03.170Z,3.00
2019-03-10T20:36:39.857Z,3.00
2019-03-10T20:39:13.553Z,3.00
2019-03-10T20:41:48.877Z,3.00
2019-03-10T20:44:22.563Z,3.00
2019-03-10T20:46:56.299Z,3.00
2019-03-10T20:49:29.899Z,3.00
2019-03-10T20:52:03.622Z,3.10
2019-03-10T20:54:37.506Z,3.10
2019-03-10T20:57:11.165Z,3.10
2019-03-10T20:59:45.865Z,3.10
2019-03-10T21:02:21.490Z,3.10
2019-03-10T21:04:57.931Z,3.10
2019-03-10T21:07:31.540Z,3.10
2019-03-10T21:10:10.968Z,3.10
2019-03-10T21:12:44.783Z,3.10
2019-03-10T21:15:20.741Z,3.10
2019-03-10T21:17:54.401Z,3.10
2019-03-10T21:20:28.196Z,3.10
2019-03-10T21:23:02.812Z,3.00
2019-03-10T21:25:36.621Z,3.00
2019-03-10T21:28:10.376Z,2.90
2019-03-10T21:30:45.290Z,2.90
2019-03-10T21:37:06.967Z,2.70
2019-03-10T21:39:42.273Z,2.70
2019-03-10T21:42:16.004Z,2.70
2019-03-10T21:44:49.585Z,2.60
2019-03-10T21:47:24.842Z,2.60
2019-03-10T21:53:44.601Z,2.60
2019-03-10T21:56:18.392Z,2.50
2019-03-10T21:58:53.595Z,2.50
2019-03-10T22:01:27.161Z,2.50
2019-03-10T22:04:00.838Z,2.50
2019-03-10T22:06:34.647Z,2.50
2019-03-10T22:09:08.263Z,2.40
2019-03-10T22:11:41.938Z,2.40
2019-03-10T22:14:15.603Z,2.40
2019-03-10T22:16:51.006Z,2.30
2019-03-10T22:19:24.613Z,2.30
2019-03-10T22:21:58.300Z,2.30
2019-03-10T22:24:32.037Z,2.20
2019-03-10T22:27:07.256Z,2.20
2019-03-10T22:29:40.877Z,2.20
2019-03-10T22:32:16.048Z,2.20
2019-03-10T22:34:49.785Z,2.20
2019-03-10T22:37:23.513Z,2.20
2019-03-10T22:39:57.647Z,2.20
2019-03-10T22:42:31.303Z,2.20
2019-03-10T22:45:06.628Z,2.20
2019-03-10T22:47:40.291Z,2.20
2019-03-10T22:50:14.967Z,2.20
2019-03-10T22:52:48.722Z,2.20
2019-03-10T22:55:22.535Z,2.20
2019-03-10T22:57:56.825Z,2.20
2019-03-10T23:00:47.757Z,2.20
2019-03-10T23:03:21.599Z,2.20
2019-03-10T23:05:56.778Z,2.20
2019-03-10T23:08:30.497Z,2.30
2019-03-10T23:11:04.687Z,2.30
2019-03-10T23:13:38.921Z,2.30
2019-03-10T23:16:12.739Z,2.40
2019-03-10T23:21:56.015Z,2.40
2019-03-10T23:24:29.687Z,2.40
2019-03-10T23:27:03.327Z,2.40
2019-03-10T23:29:37.119Z,2.50
2019-03-10T23:32:10.693Z,2.40
2019-03-10T23:38:21.809Z,2.40
2019-03-10T23:40:55.581Z,2.30
2019-03-10T23:43:29.931Z,2.20
2019-03-10T23:46:03.583Z,2.20
2019-03-10T23:48:37.338Z,2.10
2019-03-10T23:54:56.786Z,2.10
2019-03-10T23:57:31.603Z,2.10
